Marvin, North Carolina
Current Conditions -  °F | °C
As of 10:53 AM on Monday 26 Jan 2015 (Local Time) from KEQY Reporting Station
Clear Clear  
Wind Chill: 52°   Ceiling: Unl
Heat Index: 52°   Visibility: 10mi
Dew Point: 36°   Wind: 10mph
Humidity: 54%   Direction: 320°NW
Pressure: 29.63"   Gusts: NA
Location:  34.9191°N, 80.7283°W
Report Text: KEQY 261553Z AUTO 32009KT 10SM CLR 11/02 A2963 RMK AO2 SLP047 T01110022
Loading
Personal Weather Stations






























Interactive Weather Map New forecast layout! Learn more

10-Day Weather Forecast

Advertisements
Track Severe Weather on mobile